Time;durP1;ratioP1;P1;durP2;ratioP2;P2;SDS_P1;SDS_P2;PMS_P1;PMS_P2;Temp;Humidity;BMP_temperature;BMP_pressure;BME280_temperature;BME280_humidity;BME280_pressure;Samples;Min_cycle;Max_cycle;Signal;HPM_P1;HPM_P2
2022/05/03 00:01:04;;;;;;;0.47;0.38;;;;;;;8.18;66.58;101597.88;6254043;28;20054;-69
2022/05/03 00:04:11;;;;;;;0.40;0.40;;;;;;;8.11;66.71;101606.78;6250657;28;20054;-70
2022/05/03 00:07:24;;;;;;;0.40;0.40;;;;;;;8.06;68.56;101606.94;6250858;28;20049;-69
2022/05/03 00:10:32;;;;;;;0.75;0.57;;;;;;;8.05;69.56;101605.22;6249905;28;20409;-69
2022/05/03 00:13:41;;;;;;;0.50;0.50;;;;;;;7.96;69.65;101600.25;6250773;28;20700;-70
2022/05/03 00:16:44;;;;;;;0.45;0.28;;;;;;;7.94;71.51;101599.41;6250502;28;20053;-70
2022/05/03 00:19:45;;;;;;;1.02;0.60;;;;;;;7.94;71.37;101601.19;6250193;28;20045;-70
2022/05/03 00:22:48;;;;;;;1.00;0.50;;;;;;;7.88;71.18;101599.59;6261746;28;20531;-69
2022/05/03 00:25:51;;;;;;;0.80;0.40;;;;;;;7.82;72.65;101608.50;6254508;28;20050;-69
2022/05/03 00:28:53;;;;;;;0.68;0.50;;;;;;;7.77;72.33;101601.69;6250213;28;20155;-70
2022/05/03 00:31:54;;;;;;;0.25;0.25;;;;;;;7.72;72.67;101604.41;6251685;28;20050;-69
2022/05/03 00:34:58;;;;;;;1.08;0.50;;;;;;;7.66;73.80;101601.97;6250294;28;20061;-70
2022/05/03 00:38:01;;;;;;;0.88;0.50;;;;;;;7.57;73.45;101608.28;6249899;28;20056;-69
2022/05/03 00:41:05;;;;;;;0.63;0.63;;;;;;;7.54;75.00;101600.56;6249233;28;20045;-69
2022/05/03 00:47:49;;;;;;;0.65;0.50;;;;;;;7.34;75.64;101587.97;6249728;28;20412;-69
2022/05/03 00:50:58;;;;;;;0.82;0.40;;;;;;;7.34;76.48;101587.13;6249365;28;20049;-69
2022/05/03 00:54:13;;;;;;;1.00;0.70;;;;;;;7.31;76.69;101588.09;6249537;28;20516;-69
2022/05/03 00:57:26;;;;;;;0.30;0.30;;;;;;;7.24;78.74;101586.53;6249739;28;20057;-69
2022/05/03 01:00:30;;;;;;;0.50;0.35;;;;;;;7.10;78.34;101592.09;6249763;28;20504;-69
2022/05/03 01:03:42;;;;;;;0.50;0.50;;;;;;;7.04;80.02;101591.38;6249678;28;20052;-70
2022/05/03 01:06:53;;;;;;;0.75;0.60;;;;;;;7.01;81.61;101596.72;6249385;28;20052;-69
2022/05/03 01:10:04;;;;;;;0.82;0.63;;;;;;;6.97;82.05;101600.28;6248762;28;20409;-70
2022/05/03 01:13:10;;;;;;;1.00;0.50;;;;;;;6.89;81.30;101595.25;6248590;28;20050;-69
2022/05/03 01:16:25;;;;;;;1.25;0.45;;;;;;;6.80;82.48;101596.31;6249320;28;20053;-69
2022/05/03 01:19:50;;;;;;;1.58;0.80;;;;;;;6.76;83.38;101589.44;6248889;28;20045;-69
2022/05/03 01:23:09;;;;;;;1.17;0.63;;;;;;;6.70;82.90;101587.00;6248747;28;20053;-69
2022/05/03 01:26:54;;;;;;;1.05;0.68;;;;;;;6.63;83.96;101589.78;6249020;28;20409;-69
2022/05/03 01:29:59;;;;;;;1.95;0.40;;;;;;;6.52;85.54;101584.81;6248316;28;20520;-69
2022/05/03 01:33:08;;;;;;;0.77;0.35;;;;;;;6.50;84.87;101571.81;6261006;28;20405;-71
2022/05/03 01:36:10;;;;;;;0.85;0.50;;;;;;;6.35;84.40;101573.00;6273060;28;20071;-69
2022/05/03 01:39:21;;;;;;;1.00;0.63;;;;;;;6.28;85.83;101578.41;6258304;28;20489;-69
2022/05/03 01:42:29;;;;;;;0.57;0.40;;;;;;;6.34;86.14;101581.72;6263372;28;20440;-69
2022/05/03 01:45:36;;;;;;;1.75;0.50;;;;;;;6.33;85.71;101582.63;6273327;28;20060;-69
2022/05/03 01:52:32;;;;;;;1.83;0.47;;;;;;;6.30;86.56;101577.47;6272024;28;20080;-71
2022/05/03 01:56:20;;;;;;;0.70;0.50;;;;;;;6.27;86.61;101576.69;6266490;28;20049;-69
2022/05/03 01:59:31;;;;;;;0.80;0.60;;;;;;;6.19;86.73;101576.00;6272621;28;20052;-69
2022/05/03 02:02:52;;;;;;;0.55;0.43;;;;;;;6.18;88.81;101580.34;6262802;28;20183;-69
2022/05/03 02:06:01;;;;;;;0.52;0.52;;;;;;;6.08;89.07;101576.22;6248186;28;20053;-69
2022/05/03 02:09:05;;;;;;;0.55;0.52;;;;;;;6.05;89.38;101573.69;6247695;28;20092;-69
2022/05/03 02:12:14;;;;;;;0.80;0.60;;;;;;;6.01;90.24;101572.03;6247380;28;20045;-69
2022/05/03 02:15:23;;;;;;;0.65;0.60;;;;;;;5.98;89.72;101574.69;6254751;28;20049;-69
2022/05/03 02:18:36;;;;;;;2.15;0.50;;;;;;;5.95;89.53;101574.75;6264790;28;20500;-69
2022/05/03 02:21:48;;;;;;;0.68;0.50;;;;;;;5.91;90.43;101576.53;6271329;28;20049;-69
2022/05/03 02:24:57;;;;;;;1.10;0.55;;;;;;;5.87;90.85;101574.03;6272184;28;20083;-69
2022/05/03 02:28:03;;;;;;;1.63;0.88;;;;;;;5.67;90.78;101571.81;6272288;28;20056;-69
2022/05/03 02:31:08;;;;;;;0.77;0.40;;;;;;;5.62;92.12;101571.03;6271087;28;20052;-69
2022/05/03 02:34:25;;;;;;;2.25;0.55;;;;;;;5.59;92.41;101572.84;6271996;28;20045;-69
2022/05/03 02:37:35;;;;;;;0.63;0.40;;;;;;;5.64;94.15;101566.69;6272097;28;20107;-69
2022/05/03 02:40:44;;;;;;;0.60;0.50;;;;;;;5.50;93.87;101565.19;6248235;28;20825;-69
2022/05/03 02:43:47;;;;;;;0.55;0.40;;;;;;;5.47;95.30;101561.78;6247382;28;20053;-69
2022/05/03 02:46:56;;;;;;;1.08;0.68;;;;;;;5.47;96.16;101567.00;6267028;28;20053;-69
2022/05/03 02:50:05;;;;;;;1.30;0.70;;;;;;;5.47;95.55;101567.00;6271798;28;20056;-69
2022/05/03 02:53:09;;;;;;;0.73;0.60;;;;;;;5.41;96.00;101570.59;6270574;28;20088;-69
2022/05/03 02:56:23;;;;;;;1.85;0.80;;;;;;;5.42;96.48;101568.84;6271575;28;20044;-69
2022/05/03 03:01:47;;;;;;;1.63;0.60;;;;;;;5.32;96.79;101569.00;6271311;28;20140;-69
2022/05/03 03:03:04;;;;;;;2.40;0.68;;;;;;;5.28;97.18;101561.28;6270833;28;20103;-69
2022/05/03 03:06:20;;;;;;;0.40;0.40;;;;;;;5.24;98.31;101560.47;6258299;28;20457;-69
2022/05/03 03:09:25;;;;;;;0.73;0.70;;;;;;;5.27;98.08;101555.19;6246701;28;20045;-69
2022/05/03 03:12:39;;;;;;;1.15;0.73;;;;;;;5.15;97.98;101558.03;6246367;28;20053;-69
2022/05/03 03:15:41;;;;;;;3.25;0.70;;;;;;;5.04;99.23;101555.63;6246609;28;20049;-69
2022/05/03 03:18:47;;;;;;;0.70;0.47;;;;;;;4.98;100.00;101563.50;6246875;28;20060;-69
2022/05/03 03:21:52;;;;;;;2.08;0.90;;;;;;;4.97;100.00;101559.19;6245736;28;20045;-69
2022/05/03 03:24:57;;;;;;;0.75;0.63;;;;;;;4.90;100.00;101557.56;6246564;28;20080;-69
2022/05/03 03:28:01;;;;;;;1.13;0.73;;;;;;;4.88;100.00;101566.31;6246527;28;20545;-69
2022/05/03 03:31:03;;;;;;;0.75;0.60;;;;;;;4.82;100.00;101564.69;6246807;28;20050;-69
2022/05/03 03:34:06;;;;;;;1.17;0.70;;;;;;;4.84;100.00;101571.56;6267892;28;20051;-69
2022/05/03 03:37:08;;;;;;;1.15;0.50;;;;;;;4.82;100.00;101562.06;6262430;28;20049;-69
2022/05/03 03:40:13;;;;;;;0.80;0.73;;;;;;;4.82;100.00;101559.47;6264127;28;20060;-69
2022/05/03 03:43:15;;;;;;;0.55;0.55;;;;;;;4.76;100.00;101562.16;6254714;28;20045;-69
2022/05/03 03:46:16;;;;;;;1.23;0.90;;;;;;;4.77;100.00;101556.94;6246462;28;20053;-69
2022/05/03 03:49:18;;;;;;;0.60;0.60;;;;;;;4.74;100.00;101556.13;6256846;28;20056;-69
2022/05/03 03:52:21;;;;;;;0.70;0.60;;;;;;;4.74;100.00;101559.59;6253680;28;20076;-69
2022/05/03 03:55:24;;;;;;;1.13;0.70;;;;;;;4.70;100.00;101557.91;6246111;28;20053;-69
2022/05/03 03:58:26;;;;;;;2.88;0.90;;;;;;;4.68;100.00;101549.28;6249387;28;20049;-69
2022/05/03 04:01:27;;;;;;;1.45;0.63;;;;;;;4.57;100.00;101564.19;6253721;28;20049;-69
2022/05/03 04:04:31;;;;;;;0.95;0.60;;;;;;;4.55;100.00;101556.41;6268790;28;20052;-69
2022/05/03 04:07:34;;;;;;;1.15;0.75;;;;;;;4.61;100.00;101558.06;6266394;28;20037;-69
2022/05/03 04:10:36;;;;;;;1.05;0.70;;;;;;;4.60;100.00;101558.94;6274845;28;20481;-68
2022/05/03 04:13:37;;;;;;;0.73;0.70;;;;;;;4.49;100.00;101560.84;6275235;28;20417;-68
2022/05/03 04:16:40;;;;;;;3.83;1.17;;;;;;;4.55;100.00;101556.41;6275125;28;20044;-68
2022/05/03 04:19:42;;;;;;;1.95;0.70;;;;;;;4.64;100.00;101568.44;6274944;28;20044;-68
2022/05/03 04:22:45;;;;;;;1.15;0.65;;;;;;;4.67;100.00;101564.91;6274420;28;20052;-68
2022/05/03 04:25:47;;;;;;;1.58;0.80;;;;;;;4.72;100.00;101568.28;6255027;28;20132;-68
2022/05/03 04:28:48;;;;;;;2.25;1.10;;;;;;;4.76;100.00;101568.22;6250256;28;20056;-68
2022/05/03 04:31:49;;;;;;;1.25;0.57;;;;;;;4.76;100.00;101569.97;6250650;28;20045;-68
2022/05/03 04:34:51;;;;;;;0.82;0.65;;;;;;;4.72;100.00;101574.34;6250141;28;20061;-68
2022/05/03 04:37:53;;;;;;;2.83;0.70;;;;;;;4.77;100.00;101572.56;6250061;28;20057;-68
2022/05/03 04:40:58;;;;;;;0.52;0.52;;;;;;;4.83;100.00;101569.00;6249195;28;20049;-68
2022/05/03 04:43:59;;;;;;;2.20;0.85;;;;;;;4.89;100.00;101565.41;6250455;28;20041;-68
2022/05/03 04:47:01;;;;;;;3.10;0.88;;;;;;;4.85;100.00;101575.03;6249865;28;20056;-68
2022/05/03 04:50:02;;;;;;;1.60;1.02;;;;;;;4.81;100.00;101573.34;6249580;28;20049;-68
2022/05/03 04:53:05;;;;;;;1.83;0.82;;;;;;;4.92;100.00;101576.66;6249262;28;20057;-69
2022/05/03 04:56:06;;;;;;;1.52;0.80;;;;;;;5.03;100.00;101584.28;6249518;28;20049;-68
2022/05/03 04:59:08;;;;;;;0.50;0.50;;;;;;;5.13;100.00;101585.81;6259951;28;20045;-68
2022/05/03 05:02:09;;;;;;;3.28;1.15;;;;;;;5.23;100.00;101589.16;6261948;28;20045;-68
2022/05/03 05:05:11;;;;;;;1.50;0.80;;;;;;;5.32;100.00;101586.38;6264401;28;20188;-68
2022/05/03 05:08:13;;;;;;;2.20;1.23;;;;;;;5.35;100.00;101592.38;6259096;28;20049;-68
2022/05/03 05:11:15;;;;;;;3.85;1.00;;;;;;;5.44;100.00;101600.94;6258583;28;20052;-68
2022/05/03 05:14:19;;;;;;;1.95;1.08;;;;;;;5.44;100.00;101606.13;6260871;28;20050;-68
2022/05/03 05:17:21;;;;;;;1.30;0.70;;;;;;;5.53;100.00;101601.63;6257883;28;20045;-68
2022/05/03 05:20:23;;;;;;;2.03;1.20;;;;;;;5.64;100.00;101606.66;6258171;28;20045;-68
2022/05/03 05:23:25;;;;;;;1.13;0.77;;;;;;;5.76;100.00;101606.38;6260068;28;20056;-68
2022/05/03 05:26:27;;;;;;;3.72;1.02;;;;;;;5.86;100.00;101614.91;6259595;28;20041;-68
2022/05/03 05:29:28;;;;;;;2.42;1.10;;;;;;;5.94;100.00;101610.41;6259412;28;20048;-68
2022/05/03 05:32:29;;;;;;;2.13;0.88;;;;;;;6.04;100.00;101614.56;6262387;28;20044;-68
2022/05/03 05:35:31;;;;;;;1.40;0.82;;;;;;;6.18;100.00;101605.59;6271185;28;20053;-68
2022/05/03 05:38:33;;;;;;;1.67;0.98;;;;;;;6.23;100.00;101604.59;6271605;28;20056;-68
2022/05/03 05:41:35;;;;;;;1.55;0.98;;;;;;;6.32;100.00;101611.38;6272052;28;20060;-70
2022/05/03 05:44:36;;;;;;;1.60;1.05;;;;;;;6.41;100.00;101611.19;6254700;28;20493;-69
2022/05/03 05:47:37;;;;;;;2.15;1.27;;;;;;;6.53;100.00;101616.09;6247906;28;20119;-68
2022/05/03 05:50:39;;;;;;;3.20;1.02;;;;;;;6.71;100.00;101603.53;6260556;28;20044;-70
2022/05/03 05:53:42;;;;;;;4.38;1.25;;;;;;;6.78;100.00;101603.34;6267199;28;20048;-68
2022/05/03 05:56:44;;;;;;;9.02;1.90;;;;;;;6.93;100.00;101599.50;6272405;28;20048;-68
2022/05/03 05:59:46;;;;;;;1.30;0.90;;;;;;;7.00;99.17;101603.69;6272420;28;20049;-69
2022/05/03 06:02:47;;;;;;;6.45;1.17;;;;;;;7.06;97.56;101605.28;6268258;28;20051;-69
2022/05/03 06:05:49;;;;;;;1.50;0.93;;;;;;;7.11;96.26;101601.66;6268265;28;20489;-68
2022/05/03 06:08:52;;;;;;;1.50;1.20;;;;;;;7.18;95.83;101598.91;6272379;28;20049;-68
2022/05/03 06:11:53;;;;;;;1.58;0.93;;;;;;;7.25;96.41;101603.91;6271452;28;20048;-69
2022/05/03 06:14:54;;;;;;;1.05;0.80;;;;;;;7.33;96.43;101609.81;6272317;28;20057;-68
2022/05/03 06:17:56;;;;;;;0.75;0.75;;;;;;;7.43;96.04;101612.19;6272398;28;20056;-68
2022/05/03 06:20:57;;;;;;;1.20;0.90;;;;;;;7.48;94.73;101619.00;6271550;28;20045;-69
2022/05/03 06:24:00;;;;;;;2.33;1.10;;;;;;;7.50;93.96;101618.97;6266808;28;20492;-71
2022/05/03 06:27:01;;;;;;;4.40;1.75;;;;;;;7.56;94.70;101618.81;6247603;28;20049;-70
2022/05/03 06:30:04;;;;;;;2.58;1.02;;;;;;;7.67;93.41;101618.50;6246748;28;20053;-70
2022/05/03 06:33:06;;;;;;;1.95;1.05;;;;;;;7.74;94.09;101610.47;6256934;28;20424;-71
2022/05/03 06:36:07;;;;;;;1.85;1.20;;;;;;;7.81;93.18;101619.88;6266989;28;20568;-71
2022/05/03 06:39:10;;;;;;;2.00;1.23;;;;;;;7.91;93.28;101627.47;6271868;28;20056;-70
2022/05/03 06:42:12;;;;;;;1.45;0.90;;;;;;;7.95;93.10;101629.06;6247024;28;20128;-70
2022/05/03 06:45:13;;;;;;;2.08;1.00;;;;;;;8.00;93.07;101625.44;6247191;28;20052;-70
2022/05/03 06:48:15;;;;;;;5.72;1.00;;;;;;;8.08;92.26;101633.03;6246936;28;20053;-71
2022/05/03 06:51:16;;;;;;;3.08;1.63;;;;;;;8.16;90.81;101631.06;6246480;28;20053;-70
2022/05/03 06:54:19;;;;;;;1.42;1.17;;;;;;;8.27;90.91;101626.41;6246857;28;20056;-70
2022/05/03 06:57:20;;;;;;;3.30;0.95;;;;;;;8.33;89.26;101618.34;6246999;28;20085;-70
2022/05/03 07:00:22;;;;;;;3.72;1.25;;;;;;;8.44;88.36;101627.66;6246055;28;20064;-70
2022/05/03 07:03:23;;;;;;;1.70;1.10;;;;;;;8.58;85.32;101628.09;6249435;28;20053;-70
2022/05/03 07:06:24;;;;;;;0.88;0.88;;;;;;;8.70;83.44;101629.50;6268172;28;20053;-68
2022/05/03 07:09:27;;;;;;;1.83;1.00;;;;;;;8.81;79.81;101630.00;6271212;28;20389;-68
2022/05/03 07:12:28;;;;;;;1.88;0.90;;;;;;;8.87;78.63;101630.69;6268486;28;20056;-70
2022/05/03 07:15:30;;;;;;;1.58;0.82;;;;;;;8.93;75.83;101632.22;6268838;28;20044;-70
2022/05/03 07:25:07;;;;;;;5.47;1.15;;;;;;;9.12;68.91;101635.97;6256303;28;20743;-69
2022/05/03 07:28:09;;;;;;;2.30;1.20;;;;;;;9.19;68.86;101633.16;6268572;28;20057;-69
2022/05/03 07:31:10;;;;;;;1.45;1.17;;;;;;;9.34;68.10;101636.09;6268298;28;20405;-69
2022/05/03 07:34:12;;;;;;;8.35;1.65;;;;;;;9.39;70.45;101643.81;6246016;28;20084;-68
2022/05/03 07:37:13;;;;;;;2.75;1.50;;;;;;;9.44;71.71;101648.91;6243953;28;20045;-68
2022/05/03 07:40:16;;;;;;;1.77;1.33;;;;;;;9.47;70.36;101647.03;6246977;28;20060;-68
2022/05/03 07:43:17;;;;;;;1.90;1.48;;;;;;;9.52;70.18;101644.25;6251453;28;20045;-68
2022/05/03 07:46:18;;;;;;;3.97;1.67;;;;;;;9.59;71.99;101640.53;6251179;28;20520;-68
2022/05/03 07:49:20;;;;;;;4.97;1.98;;;;;;;9.68;72.14;101644.59;6251040;28;20111;-68
2022/05/03 07:52:21;;;;;;;4.55;2.08;;;;;;;9.88;71.50;101652.63;6250469;28;20045;-68
2022/05/03 07:55:24;;;;;;;2.78;1.42;;;;;;;9.93;71.06;101639.31;6251047;28;20049;-68
2022/05/03 07:58:25;;;;;;;3.05;1.83;;;;;;;10.03;72.02;101638.91;6251325;28;20494;-69
2022/05/03 08:01:26;;;;;;;5.05;2.25;;;;;;;10.08;72.90;101636.13;6250181;28;20057;-68
2022/05/03 08:04:28;;;;;;;2.83;1.70;;;;;;;10.14;72.32;101644.66;6252048;28;20046;-68
2022/05/03 08:07:29;;;;;;;5.03;2.63;;;;;;;10.19;72.21;101647.09;6250682;28;20060;-68
2022/05/03 08:10:32;;;;;;;5.65;1.70;;;;;;;10.28;71.83;101649.41;6250380;28;20064;-68
2022/05/03 08:13:33;;;;;;;4.15;2.13;;;;;;;10.35;72.57;101644.78;6250576;28;20049;-68
2022/05/03 08:16:35;;;;;;;5.65;2.35;;;;;;;10.40;73.18;101642.81;6250794;28;20053;-68
2022/05/03 08:19:36;;;;;;;3.22;2.13;;;;;;;10.43;73.56;101642.72;6250569;28;20492;-68
2022/05/03 08:22:38;;;;;;;5.65;2.85;;;;;;;10.39;74.10;101643.75;6249570;28;20052;-68
2022/05/03 08:25:40;;;;;;;3.90;2.63;;;;;;;10.49;74.73;101645.13;6250472;28;20626;-69
2022/05/03 08:28:42;;;;;;;5.55;3.22;;;;;;;10.64;74.65;101644.53;6250060;28;20049;-68
2022/05/03 08:31:43;;;;;;;4.72;2.63;;;;;;;10.68;75.25;101642.63;6252345;28;20478;-68
2022/05/03 08:34:45;;;;;;;5.28;2.65;;;;;;;10.65;75.65;101653.25;6275413;28;20053;-68
2022/05/03 08:44:22;;;;;;;4.57;2.42;;;;;;;11.07;73.88;101644.56;6274595;28;20132;-68
2022/05/03 08:47:27;;;;;;;4.97;2.88;;;;;;;11.09;73.85;101640.13;6275024;28;20056;-69
2022/05/03 08:50:33;;;;;;;5.68;2.60;;;;;;;11.15;74.46;101650.38;6269927;28;20519;-68
2022/05/03 08:53:35;;;;;;;7.15;3.30;;;;;;;11.26;74.87;101649.91;6273027;28;20072;-69
2022/05/03 08:56:38;;;;;;;4.47;2.60;;;;;;;11.37;75.32;101651.19;6274699;28;20056;-76
2022/05/03 08:59:39;;;;;;;8.05;3.70;;;;;;;11.39;72.99;101654.59;6275549;28;20056;-69
2022/05/03 09:02:44;;;;;;;8.38;3.28;;;;;;;11.49;74.72;101648.94;6271916;28;20048;-69
2022/05/03 09:05:45;;;;;;;6.40;3.28;;;;;;;11.66;75.45;101654.34;6274043;28;20045;-69
2022/05/03 09:08:51;;;;;;;5.50;3.35;;;;;;;11.75;73.51;101648.69;6274334;28;20420;-69
2022/05/03 09:11:54;;;;;;;5.13;2.80;;;;;;;11.77;73.38;101652.13;6273251;28;20190;-69
2022/05/03 09:14:57;;;;;;;6.72;3.28;;;;;;;11.88;74.13;101652.53;6274086;28;20187;-69
2022/05/03 09:17:59;;;;;;;7.22;3.78;;;;;;;12.18;74.45;101652.09;6273871;28;20049;-69
2022/05/03 09:24:19;;;;;;;6.03;3.60;;;;;;;12.80;73.17;101644.78;6273660;28;20508;-68
2022/05/03 09:27:24;;;;;;;6.95;3.15;;;;;;;13.08;73.65;101649.56;6273763;28;20056;-69
2022/05/03 09:30:25;;;;;;;10.57;3.72;;;;;;;13.03;71.17;101639.22;6272960;28;20059;-69
2022/05/03 09:33:27;;;;;;;4.65;3.20;;;;;;;12.99;71.29;101636.81;6272113;28;20048;-69
2022/05/03 09:36:28;;;;;;;7.70;3.97;;;;;;;13.02;70.65;101640.16;6273481;28;20056;-69
2022/05/03 09:39:31;;;;;;;9.60;3.95;;;;;;;12.88;74.50;101640.00;6273340;28;20052;-68
2022/05/03 09:42:35;;;;;;;7.13;3.20;;;;;;;12.99;73.11;101640.34;6271647;28;20051;-69
2022/05/03 09:45:37;;;;;;;7.05;3.28;;;;;;;13.00;72.50;101636.75;6272943;28;20056;-68
2022/05/03 09:48:51;;;;;;;5.50;3.20;;;;;;;12.91;71.87;101638.06;6258497;28;20045;-68
2022/05/03 09:51:53;;;;;;;6.93;3.75;;;;;;;12.94;74.34;101645.84;6268219;28;20061;-69
2022/05/03 09:54:59;;;;;;;6.18;3.40;;;;;;;13.11;73.26;101638.84;6272563;28;20448;-68
2022/05/03 09:58:03;;;;;;;6.03;3.10;;;;;;;13.31;72.55;101644.03;6258932;28;20139;-69
2022/05/03 10:01:05;;;;;;;5.97;3.20;;;;;;;13.28;72.20;101636.28;6247592;28;20053;-69
2022/05/03 10:04:07;;;;;;;5.00;2.60;;;;;;;13.26;71.92;101635.47;6248653;28;20061;-69
2022/05/03 10:07:08;;;;;;;5.63;3.20;;;;;;;13.43;73.41;101643.41;6248220;28;20056;-69
2022/05/03 10:10:11;;;;;;;5.20;2.88;;;;;;;13.69;70.62;101633.28;6247663;28;20500;-69
2022/05/03 10:13:14;;;;;;;6.40;3.63;;;;;;;13.71;71.36;101629.63;6247551;28;20045;-68
2022/05/03 10:22:54;;;;;;;8.38;4.22;;;;;;;13.74;71.65;101617.22;6247391;28;20081;-69
2022/05/03 10:25:57;;;;;;;7.70;4.40;;;;;;;13.58;71.78;101627.69;6247508;28;20050;-69
2022/05/03 10:29:09;;;;;;;7.80;4.00;;;;;;;13.47;73.38;101627.41;6247463;28;20056;-69
2022/05/03 10:32:15;;;;;;;10.32;4.32;;;;;;;13.71;70.97;101629.63;6246755;28;20041;-69
2022/05/03 10:35:32;;;;;;;6.25;3.60;;;;;;;13.86;68.94;101621.84;6248303;28;20123;-68
2022/05/03 10:38:38;;;;;;;4.82;2.65;;;;;;;14.04;70.04;101625.31;6263046;28;20055;-68
2022/05/03 10:41:53;;;;;;;6.82;3.28;;;;;;;14.19;69.42;101621.81;6260033;28;20095;-68
2022/05/03 10:45:03;;;;;;;5.57;3.20;;;;;;;14.23;68.13;101618.06;6247860;28;20052;-68
2022/05/03 10:48:05;;;;;;;6.72;3.42;;;;;;;14.34;70.72;101615.69;6268355;28;20053;-69
2022/05/03 10:51:08;;;;;;;6.97;3.70;;;;;;;14.52;70.54;101621.78;6253525;28;20060;-69
2022/05/03 10:54:10;;;;;;;9.77;4.00;;;;;;;14.36;69.71;101621.75;6271246;28;20056;-68
2022/05/03 10:57:11;;;;;;;8.07;3.80;;;;;;;14.32;68.98;101619.38;6271529;28;20074;-69
2022/05/03 11:00:15;;;;;;;6.70;3.92;;;;;;;14.18;69.43;101626.25;6271220;28;20511;-69
2022/05/03 11:03:20;;;;;;;7.50;3.92;;;;;;;14.05;70.46;101613.78;6270000;28;20052;-70
2022/05/03 11:06:52;;;;;;;7.55;4.20;;;;;;;13.99;70.47;101614.09;6269903;28;20052;-70
2022/05/03 11:09:53;;;;;;;10.35;3.88;;;;;;;14.06;70.92;101615.50;6271096;28;20045;-71
2022/05/03 11:12:55;;;;;;;7.68;3.78;;;;;;;14.19;68.93;101613.88;6270851;28;20401;-70
2022/05/03 11:16:34;;;;;;;6.32;3.38;;;;;;;14.40;70.17;101609.22;6270868;28;20045;-69
2022/05/03 11:19:37;;;;;;;5.15;3.30;;;;;;;14.52;67.74;101600.63;6210401;28;20078;-70
2022/05/03 11:22:39;;;;;;;7.35;3.28;;;;;;;14.42;67.73;101594.97;6194116;28;20054;-71
2022/05/03 11:25:40;;;;;;;5.07;2.53;;;;;;;14.34;68.61;101604.25;6244337;28;20490;-68
2022/05/03 11:28:41;;;;;;;7.07;3.63;;;;;;;14.00;70.03;101602.63;6258971;28;20048;-69
2022/05/03 11:31:48;;;;;;;5.65;3.25;;;;;;;14.00;72.42;101602.63;6250849;28;20069;-69
2022/05/03 11:34:49;;;;;;;5.28;2.80;;;;;;;14.51;73.05;101598.06;6261132;28;20060;-69
2022/05/03 11:37:55;;;;;;;6.60;3.28;;;;;;;15.70;67.59;101607.81;6265380;28;20087;-68
2022/05/03 11:40:56;;;;;;;5.63;2.90;;;;;;;15.60;64.55;101604.00;6270552;28;20052;-69
2022/05/03 11:43:58;;;;;;;6.22;2.60;;;;;;;15.85;64.29;101606.03;6270532;28;20504;-68
2022/05/03 11:47:04;;;;;;;6.35;3.08;;;;;;;15.89;64.19;101604.88;6271018;28;20511;-68
2022/05/03 11:50:07;;;;;;;6.53;3.80;;;;;;;15.93;64.23;101603.75;6270860;28;20075;-68
2022/05/03 11:56:34;;;;;;;7.13;3.33;;;;;;;15.84;64.26;101595.53;6270944;28;20120;-69
2022/05/03 11:59:36;;;;;;;7.32;4.10;;;;;;;15.31;66.45;101596.97;6270809;28;20408;-69
2022/05/03 12:02:42;;;;;;;7.65;3.13;;;;;;;14.66;66.90;101592.75;6270464;28;20048;-69
2022/05/03 12:05:59;;;;;;;7.50;3.88;;;;;;;14.31;69.65;101588.56;6269290;28;20056;-69
2022/05/03 12:09:01;;;;;;;6.40;3.30;;;;;;;14.30;70.37;101598.28;6271002;28;20053;-69
2022/05/03 12:15:24;;;;;;;11.40;3.78;;;;;;;14.95;68.59;101596.38;6270715;28;20049;-70
2022/05/03 12:18:30;;;;;;;7.00;3.15;;;;;;;15.36;64.91;101597.53;6269221;28;20049;-70
2022/05/03 12:21:43;;;;;;;5.10;3.17;;;;;;;16.34;63.92;101589.69;6269958;28;20056;-69
2022/05/03 12:24:47;;;;;;;5.38;2.80;;;;;;;16.16;60.10;101591.69;6270549;28;20045;-69
2022/05/03 12:27:49;;;;;;;5.05;2.80;;;;;;;15.61;60.79;101589.78;6274134;28;20091;-69
2022/05/03 12:30:58;;;;;;;5.93;3.20;;;;;;;15.09;63.79;101584.13;6274326;28;20041;-70
2022/05/03 12:34:00;;;;;;;4.05;2.50;;;;;;;15.41;66.40;101584.88;6274192;28;20049;-70
2022/05/03 12:37:03;;;;;;;6.45;3.40;;;;;;;15.19;63.09;101586.16;6274815;28;20431;-69
2022/05/03 12:40:05;;;;;;;5.82;2.78;;;;;;;14.59;66.00;101593.19;6274734;28;20061;-69
2022/05/03 12:43:09;;;;;;;5.65;3.00;;;;;;;14.37;68.44;101582.94;6274381;28;20056;-70
2022/05/03 12:46:11;;;;;;;6.85;3.45;;;;;;;14.38;71.65;101590.78;6274790;28;20060;-69
2022/05/03 12:49:14;;;;;;;6.75;3.80;;;;;;;14.17;75.12;101586.66;6273577;28;20056;-70
2022/05/03 12:52:16;;;;;;;7.35;4.25;;;;;;;14.04;77.88;101581.22;6273761;28;20424;-70
2022/05/03 12:55:19;;;;;;;6.82;3.88;;;;;;;14.14;79.42;101584.22;6274345;28;20416;-69
2022/05/03 12:58:22;;;;;;;7.38;3.70;;;;;;;14.17;78.11;101584.91;6274208;28;20533;-70
2022/05/03 13:01:24;;;;;;;7.90;3.45;;;;;;;14.19;78.53;101580.38;6273654;28;20052;-70
2022/05/03 13:04:29;;;;;;;10.15;4.05;;;;;;;14.71;75.60;101587.19;6272328;28;20048;-70
2022/05/03 13:07:31;;;;;;;11.02;4.15;;;;;;;16.36;66.11;101579.84;6274220;28;20045;-70
2022/05/03 13:10:33;;;;;;;9.18;3.92;;;;;;;16.70;63.47;101572.31;6273309;28;20044;-70
2022/05/03 13:13:35;;;;;;;6.38;3.60;;;;;;;16.06;66.98;101576.47;6274138;28;20492;-70
2022/05/03 13:16:37;;;;;;;11.15;4.80;;;;;;;15.65;71.39;101572.81;6274158;28;20485;-70
2022/05/03 13:19:39;;;;;;;8.18;3.60;;;;;;;15.52;69.35;101574.47;6273890;28;20056;-69
2022/05/03 13:22:41;;;;;;;11.38;4.10;;;;;;;15.55;69.47;101570.78;6272926;28;20056;-70
2022/05/03 13:25:42;;;;;;;5.93;3.42;;;;;;;15.67;68.11;101562.13;6273929;28;20049;-70
2022/05/03 13:28:44;;;;;;;11.02;3.03;;;;;;;17.77;58.66;101569.56;6273590;28;20048;-70
2022/05/03 13:31:46;;;;;;;4.82;2.95;;;;;;;20.58;49.29;101552.53;6272893;28;20599;-70
2022/05/03 13:34:49;;;;;;;3.80;2.90;;;;;;;20.06;47.05;101544.25;6254529;28;20054;-70
2022/05/03 13:41:10;;;;;;;4.68;2.20;;;;;;;19.01;51.18;101559.53;6248099;28;20493;-70
2022/05/03 13:44:11;;;;;;;3.63;2.08;;;;;;;17.06;56.26;101547.81;6248314;28;20571;-70
2022/05/03 13:47:14;;;;;;;6.78;2.40;;;;;;;17.05;58.88;101542.63;6247584;28;20049;-70
2022/05/03 13:50:16;;;;;;;3.72;2.08;;;;;;;18.09;55.16;101544.16;6248243;28;20053;-70
2022/05/03 13:53:18;;;;;;;3.05;1.73;;;;;;;17.53;56.47;101542.81;6248252;28;20057;-70
2022/05/03 13:56:19;;;;;;;2.80;1.65;;;;;;;16.71;57.79;101544.81;6248536;28;20052;-70
2022/05/03 13:59:21;;;;;;;5.07;2.10;;;;;;;15.52;60.75;101550.63;6248456;28;20049;-70
2022/05/03 14:02:22;;;;;;;4.65;1.77;;;;;;;15.07;63.77;101556.88;6247201;28;20413;-70
2022/05/03 14:05:26;;;;;;;4.53;1.60;;;;;;;14.82;65.90;101549.56;6249236;28;20057;-70
2022/05/03 14:08:27;;;;;;;3.15;1.75;;;;;;;14.87;64.00;101553.63;6247917;28;20049;-70
2022/05/03 14:11:28;;;;;;;3.15;1.10;;;;;;;15.35;64.57;101551.66;6247262;28;20076;-70
2022/05/03 14:14:30;;;;;;;3.28;1.75;;;;;;;15.80;61.07;101549.78;6247831;28;20045;-70
2022/05/03 14:17:31;;;;;;;9.23;1.70;;;;;;;15.63;63.15;101555.28;6247826;28;20052;-70
2022/05/03 14:20:34;;;;;;;3.90;1.80;;;;;;;15.08;63.49;101556.81;6246901;28;20053;-70
2022/05/03 14:23:35;;;;;;;4.57;1.65;;;;;;;14.68;66.10;101545.91;6247493;28;20056;-70
2022/05/03 14:26:37;;;;;;;3.65;1.90;;;;;;;15.39;63.21;101554.97;6247511;28;20409;-70
2022/05/03 14:29:38;;;;;;;1.95;1.48;;;;;;;15.20;62.55;101548.13;6247603;28;20057;-70
2022/05/03 14:32:39;;;;;;;3.13;1.60;;;;;;;15.09;64.72;101547.06;6247080;28;20068;-70
2022/05/03 14:35:42;;;;;;;3.53;1.98;;;;;;;14.94;65.27;101559.41;6248180;28;20053;-70
2022/05/03 14:38:44;;;;;;;4.82;1.83;;;;;;;14.87;66.00;101556.28;6247412;28;20050;-70
2022/05/03 14:41:45;;;;;;;8.20;1.95;;;;;;;14.65;65.47;101546.06;6246397;28;20049;-70
2022/05/03 14:44:46;;;;;;;3.67;2.15;;;;;;;14.75;66.47;101553.47;6247356;28;20042;-70
2022/05/03 14:47:48;;;;;;;5.05;2.08;;;;;;;14.90;64.32;101553.47;6247335;28;20049;-70
2022/05/03 14:50:51;;;;;;;2.70;1.90;;;;;;;15.93;61.29;101555.19;6246333;28;20428;-70
2022/05/03 14:53:52;;;;;;;4.13;2.00;;;;;;;18.71;50.41;101548.50;6246918;28;20057;-70
2022/05/03 15:03:34;;;;;;;3.10;1.20;;;;;;;16.58;57.73;101547.47;6246904;28;20049;-70
2022/05/03 15:06:40;;;;;;;9.90;2.47;;;;;;;16.54;55.19;101539.81;6247899;28;20056;-70